Time;durP1;ratioP1;P1;durP2;ratioP2;P2;SDS_P1;SDS_P2;PMS_P1;PMS_P2;Temp;Humidity;BMP_temperature;BMP_pressure;BME280_temperature;BME280_humidity;BME280_pressure;Samples;Min_cycle;Max_cycle;Signal;HPM_P1;HPM_P2
2022/12/01 00:00:53;;;;;;;34.03;12.20;;;6.80;99.90;;;;;;5091434;28;20040;-83
2022/12/01 00:03:20;;;;;;;33.92;12.93;;;5.20;99.90;;;;;;5091950;28;20080;-83
2022/12/01 00:05:46;;;;;;;31.58;12.90;;;;;;;;;;5058388;28;20036;-82
2022/12/01 00:08:11;;;;;;;31.70;12.13;;;5.20;99.90;;;;;;5092114;28;20480;-82
2022/12/01 00:10:37;;;;;;;29.48;11.68;;;6.00;99.90;;;;;;5061310;28;20119;-82
2022/12/01 00:13:05;;;;;;;30.92;12.45;;;5.10;99.90;;;;;;5056773;28;20085;-83
2022/12/01 00:15:35;;;;;;;32.95;11.43;;;5.70;99.90;;;;;;5091641;28;20459;-83
2022/12/01 00:18:04;;;;;;;39.92;15.05;;;5.70;99.90;;;;;;5093286;28;20460;-83
2022/12/01 00:20:32;;;;;;;32.65;13.63;;;5.00;99.90;;;;;;5090514;28;20044;-82
2022/12/01 00:22:59;;;;;;;39.47;14.55;;;6.40;99.90;;;;;;5088736;28;20634;-81
2022/12/01 00:25:24;;;;;;;37.38;14.63;;;6.50;99.90;;;;;;5091281;28;20040;-81
2022/12/01 00:27:51;;;;;;;35.78;12.75;;;5.70;99.90;;;;;;5091468;28;20119;-81
2022/12/01 00:30:19;;;;;;;37.97;12.65;;;5.10;99.90;;;;;;5091280;28;20043;-81
2022/12/01 00:32:46;;;;;;;34.33;12.95;;;6.40;99.90;;;;;;5091365;28;20047;-81
2022/12/01 00:35:12;;;;;;;39.42;13.68;;;6.10;99.90;;;;;;5092741;28;20162;-81
2022/12/01 00:37:38;;;;;;;36.53;12.93;;;5.50;99.90;;;;;;5073948;28;20067;-81
2022/12/01 00:40:05;;;;;;;34.58;11.82;;;5.00;99.90;;;;;;5095426;28;20036;-83
2022/12/01 00:42:31;;;;;;;31.27;10.50;;;5.00;99.90;;;;;;5077753;28;20044;-83
2022/12/01 00:44:57;;;;;;;33.40;13.18;;;5.00;99.90;;;;;;5095070;28;20052;-83
2022/12/01 00:47:22;;;;;;;33.10;11.85;;;5.40;99.90;;;;;;5095076;28;20032;-83
2022/12/01 00:49:48;;;;;;;36.22;11.80;;;5.00;99.90;;;;;;5077922;28;20499;-83
2022/12/01 00:52:18;;;;;;;35.75;13.02;;;6.40;99.90;;;;;;5093984;28;20070;-83
2022/12/01 00:54:44;;;;;;;34.33;12.80;;;6.30;99.90;;;;;;5077279;28;20097;-83
2022/12/01 00:57:10;;;;;;;32.50;14.20;;;6.80;99.90;;;;;;5077814;28;20046;-82
2022/12/01 00:59:36;;;;;;;36.47;13.10;;;5.00;99.90;;;;;;5095193;28;20070;-82
2022/12/01 01:02:04;;;;;;;30.98;11.95;;;5.90;99.90;;;;;;5094718;28;20100;-82
2022/12/01 01:04:32;;;;;;;33.80;11.90;;;5.00;99.90;;;;;;5092898;28;20051;-82
2022/12/01 01:06:58;;;;;;;28.27;11.38;;;6.70;99.90;;;;;;5093270;28;20241;-83
2022/12/01 01:09:24;;;;;;;32.22;11.57;;;5.00;99.90;;;;;;5078312;28;20487;-82
2022/12/01 01:11:51;;;;;;;34.45;12.65;;;5.00;99.90;;;;;;5096598;28;20043;-83
2022/12/01 01:14:17;;;;;;;35.60;13.35;;;5.80;99.90;;;;;;5093771;28;20047;-81
2022/12/01 01:16:43;;;;;;;34.05;12.50;;;6.10;99.90;;;;;;5095534;28;20047;-81
2022/12/01 01:19:09;;;;;;;32.25;11.52;;;5.70;99.90;;;;;;5072006;28;20048;-81
2022/12/01 01:21:35;;;;;;;29.88;11.75;;;6.60;99.90;;;;;;5093310;28;20400;-81
2022/12/01 01:24:01;;;;;;;38.05;12.27;;;5.00;99.90;;;;;;5093530;28;20040;-81
2022/12/01 01:26:29;;;;;;;33.55;11.77;;;5.70;99.90;;;;;;5077048;28;20047;-81
2022/12/01 01:28:59;;;;;;;31.63;12.75;;;6.40;99.90;;;;;;5094153;28;20182;-81
2022/12/01 01:31:27;;;;;;;31.27;11.85;;;5.00;99.90;;;;;;5092467;28;20040;-83
2022/12/01 01:33:55;;;;;;;32.45;11.43;;;5.00;99.90;;;;;;5076789;28;20043;-83
2022/12/01 01:36:21;;;;;;;30.23;12.32;;;6.00;99.90;;;;;;5091912;28;20036;-82
2022/12/01 01:38:50;;;;;;;30.92;12.60;;;;;;;;;;5093239;28;20039;-82
2022/12/01 01:41:17;;;;;;;37.13;13.45;;;5.00;99.90;;;;;;5093096;28;20039;-82
2022/12/01 01:43:50;;;;;;;33.15;11.35;;;6.00;99.90;;;;;;5092714;28;20036;-83
2022/12/01 01:46:23;;;;;;;29.30;11.82;;;4.90;99.90;;;;;;5088587;28;20036;-84
2022/12/01 01:48:50;;;;;;;33.83;11.90;;;4.90;99.90;;;;;;5087198;28;20043;-84
2022/12/01 01:51:21;;;;;;;33.50;13.45;;;4.90;99.90;;;;;;5098187;28;20039;-84
2022/12/01 01:53:48;;;;;;;30.10;12.13;;;6.30;99.90;;;;;;5095961;28;20052;-84
2022/12/01 01:56:14;;;;;;;26.08;11.02;;;6.30;99.90;;;;;;5098565;28;20368;-84
2022/12/01 01:58:41;;;;;;;35.90;11.55;;;6.00;99.90;;;;;;5092552;28;20046;-84
2022/12/01 02:01:07;;;;;;;27.90;11.30;;;6.10;99.90;;;;;;5085736;28;20063;-85
2022/12/01 02:03:35;;;;;;;33.08;12.60;;;4.80;99.90;;;;;;5097236;28;20040;-83
2022/12/01 02:06:01;;;;;;;30.65;11.85;;;6.10;99.90;;;;;;5114241;28;20074;-83
2022/12/01 02:08:28;;;;;;;32.47;12.05;;;4.80;99.90;;;;;;5112577;28;20063;-82
2022/12/01 02:11:30;;;;;;;31.65;12.13;;;5.30;99.90;;;;;;5096111;28;20118;-82
2022/12/01 02:14:17;;;;;;;29.15;10.77;;;4.80;99.90;;;;;;5079115;28;20039;-82
2022/12/01 02:16:58;;;;;;;36.17;12.88;;;4.80;99.90;;;;;;5095757;28;20058;-82
2022/12/01 02:19:48;;;;;;;33.95;11.77;;;4.80;99.90;;;;;;5087473;28;20126;-82
2022/12/01 02:22:43;;;;;;;30.88;11.88;;;4.90;99.90;;;;;;5078403;28;20039;-83
2022/12/01 02:25:11;;;;;;;32.38;12.60;;;4.80;99.90;;;;;;5068626;28;20110;-83
2022/12/01 02:28:14;;;;;;;38.30;12.75;;;4.80;99.90;;;;;;5079283;28;20084;-82
2022/12/01 02:30:46;;;;;;;35.63;12.85;;;4.90;99.90;;;;;;5079043;28;20122;-82
2022/12/01 02:33:18;;;;;;;29.08;11.85;;;4.90;99.90;;;;;;5095608;28;20027;-83
2022/12/01 02:35:51;;;;;;;29.17;12.13;;;4.90;99.90;;;;;;5093364;28;20169;-83
2022/12/01 02:38:38;;;;;;;39.38;13.95;;;4.90;99.90;;;;;;5090978;28;20043;-85
2022/12/01 02:41:19;;;;;;;36.40;13.82;;;4.90;99.90;;;;;;5096892;28;20325;-84
2022/12/01 02:43:55;;;;;;;33.63;14.75;;;4.90;99.90;;;;;;5095937;28;20042;-84
2022/12/01 02:46:32;;;;;;;45.65;15.35;;;5.30;99.90;;;;;;5095809;28;20364;-84
2022/12/01 02:49:03;;;;;;;42.88;16.60;;;4.90;99.90;;;;;;5095883;28;20048;-84
2022/12/01 02:51:34;;;;;;;39.53;14.15;;;4.90;99.90;;;;;;5096105;28;20464;-84
2022/12/01 02:54:02;;;;;;;36.65;13.73;;;5.00;99.90;;;;;;5095843;28;20410;-81
2022/12/01 02:56:28;;;;;;;40.42;15.90;;;5.00;99.90;;;;;;5091270;28;20394;-81
2022/12/01 02:58:53;;;;;;;36.97;13.15;;;5.70;99.90;;;;;;5078162;28;20031;-81
2022/12/01 03:01:43;;;;;;;35.55;13.40;;;4.90;99.90;;;;;;5094932;28;20039;-81
2022/12/01 03:04:34;;;;;;;34.15;13.30;;;4.90;99.90;;;;;;5094490;28;20044;-81
2022/12/01 03:07:37;;;;;;;31.15;12.18;;;4.90;99.90;;;;;;5093605;28;20146;-81
2022/12/01 03:10:06;;;;;;;34.40;13.15;;;4.90;99.90;;;;;;5094997;28;20050;-82
2022/12/01 03:12:41;;;;;;;31.98;12.23;;;4.90;99.90;;;;;;5095371;28;20046;-82
2022/12/01 03:15:38;;;;;;;45.00;14.43;;;4.90;99.90;;;;;;5094874;28;20093;-82
2022/12/01 03:18:10;;;;;;;36.60;12.68;;;4.90;99.90;;;;;;5050217;28;20055;-82
2022/12/01 03:21:00;;;;;;;31.48;11.18;;;4.80;99.90;;;;;;5076986;28;20084;-82
2022/12/01 03:23:30;;;;;;;31.50;12.32;;;4.80;99.90;;;;;;5094773;28;20059;-82
2022/12/01 03:25:59;;;;;;;35.08;11.70;;;4.80;99.90;;;;;;5094311;28;20545;-82
2022/12/01 03:28:31;;;;;;;35.40;12.48;;;4.60;99.90;;;;;;5093609;28;20063;-81
2022/12/01 03:31:02;;;;;;;34.35;12.50;;;4.70;99.90;;;;;;5094934;28;20356;-81
2022/12/01 03:33:37;;;;;;;35.92;11.85;;;6.10;99.90;;;;;;5095532;28;20126;-81
2022/12/01 03:36:14;;;;;;;31.73;12.03;;;4.70;99.90;;;;;;5077982;28;20043;-81
2022/12/01 03:38:45;;;;;;;31.00;12.88;;;4.70;99.90;;;;;;5094247;28;20310;-81
2022/12/01 03:41:18;;;;;;;30.85;12.18;;;4.60;99.90;;;;;;5075925;28;20036;-81
2022/12/01 03:43:50;;;;;;;36.72;12.48;;;5.00;99.90;;;;;;5074424;28;20126;-82
2022/12/01 03:46:30;;;;;;;30.73;11.98;;;5.90;99.90;;;;;;5076598;28;20032;-82
2022/12/01 03:48:56;;;;;;;31.55;12.57;;;4.60;99.90;;;;;;5075755;28;20051;-82
2022/12/01 03:51:38;;;;;;;31.58;11.07;;;4.80;99.90;;;;;;5094540;28;20043;-83
2022/12/01 03:54:24;;;;;;;35.67;11.70;;;4.60;99.90;;;;;;5094180;28;20100;-82
2022/12/01 03:56:54;;;;;;;32.10;13.00;;;4.60;99.90;;;;;;5074831;28;20047;-82
2022/12/01 03:59:22;;;;;;;27.90;11.15;;;6.10;99.90;;;;;;5094317;28;20097;-82
2022/12/01 04:01:49;;;;;;;33.10;13.85;;;5.70;99.90;;;;;;5095617;28;20048;-84
2022/12/01 04:04:15;;;;;;;31.80;12.40;;;4.60;99.90;;;;;;5095568;28;20040;-84
2022/12/01 04:06:45;;;;;;;31.92;12.30;;;4.50;99.90;;;;;;5095610;28;20071;-84
2022/12/01 04:09:11;;;;;;;29.92;11.10;;;4.50;99.90;;;;;;5079745;28;20027;-84
2022/12/01 04:14:21;;;;;;;28.77;11.82;;;4.50;99.90;;;;;;5088138;28;20571;-85
2022/12/01 04:16:47;;;;;;;37.53;13.20;;;4.50;99.90;;;;;;5102081;28;20043;-83
2022/12/01 04:19:13;;;;;;;29.63;12.05;;;4.70;99.90;;;;;;5083596;28;20024;-82
2022/12/01 04:21:39;;;;;;;26.08;10.70;;;4.50;99.90;;;;;;5101037;28;20054;-82
2022/12/01 04:24:05;;;;;;;33.53;13.40;;;5.00;99.90;;;;;;5067025;28;20047;-82
2022/12/01 04:26:36;;;;;;;33.15;11.98;;;4.60;99.90;;;;;;5100406;28;20074;-83
2022/12/01 04:29:05;;;;;;;31.20;13.35;;;5.90;99.90;;;;;;5100605;28;20040;-82
2022/12/01 04:31:31;;;;;;;31.70;11.90;;;4.60;99.90;;;;;;5100779;28;20044;-82
2022/12/01 04:33:58;;;;;;;36.80;13.65;;;4.60;99.90;;;;;;5100562;28;20058;-81
2022/12/01 04:36:24;;;;;;;28.02;12.02;;;6.10;99.90;;;;;;5083534;28;20499;-81
2022/12/01 04:38:50;;;;;;;33.00;13.63;;;5.30;99.90;;;;;;5083290;28;20398;-81
2022/12/01 04:41:16;;;;;;;34.38;12.88;;;5.80;99.90;;;;;;5098588;28;20118;-81
2022/12/01 04:43:43;;;;;;;37.00;13.15;;;4.70;99.90;;;;;;5099722;28;20127;-81
2022/12/01 04:46:09;;;;;;;31.98;12.50;;;5.70;99.90;;;;;;5082599;28;20043;-81
2022/12/01 04:48:36;;;;;;;36.75;12.73;;;4.70;99.90;;;;;;5097926;28;20050;-81
2022/12/01 04:51:04;;;;;;;34.28;12.57;;;4.70;99.90;;;;;;5083491;28;20046;-82
2022/12/01 04:53:30;;;;;;;33.40;11.50;;;4.70;99.90;;;;;;5083019;28;20585;-82
2022/12/01 04:55:55;;;;;;;32.95;13.38;;;6.40;99.90;;;;;;5099832;28;20090;-83
2022/12/01 04:58:21;;;;;;;31.00;12.57;;;4.70;99.90;;;;;;5089770;28;20051;-83
2022/12/01 05:00:47;;;;;;;24.35;10.20;;;5.00;99.90;;;;;;5099393;28;20062;-83
2022/12/01 05:03:13;;;;;;;29.90;11.73;;;4.70;99.90;;;;;;5098821;28;20425;-83
2022/12/01 05:05:38;;;;;;;33.50;13.35;;;4.70;99.90;;;;;;5083691;28;20500;-83
2022/12/01 05:08:04;;;;;;;32.92;12.73;;;4.70;99.90;;;;;;5099379;28;20425;-84
2022/12/01 05:10:30;;;;;;;27.52;11.80;;;4.90;99.90;;;;;;5098752;28;20043;-84
2022/12/01 05:12:57;;;;;;;33.20;12.73;;;4.70;99.90;;;;;;5082724;28;20110;-84
2022/12/01 05:15:23;;;;;;;32.45;11.65;;;5.30;99.90;;;;;;5083034;28;20046;-85
2022/12/01 05:17:48;;;;;;;33.45;12.35;;;4.80;99.90;;;;;;5083319;28;20044;-85
2022/12/01 05:23:04;;;;;;;33.42;12.65;;;4.70;99.90;;;;;;5094825;28;20046;-84
2022/12/01 05:25:30;;;;;;;32.55;11.18;;;4.70;99.90;;;;;;5096846;28;20110;-84
2022/12/01 05:27:56;;;;;;;36.30;11.85;;;4.70;99.90;;;;;;5096068;28;20448;-84
2022/12/01 05:30:22;;;;;;;32.40;11.98;;;4.70;99.90;;;;;;5095084;28;20058;-84
2022/12/01 05:32:47;;;;;;;35.38;13.00;;;4.70;99.90;;;;;;5096440;28;20144;-84
2022/12/01 05:35:13;;;;;;;35.45;13.40;;;4.70;99.90;;;;;;5080584;28;20040;-84
2022/12/01 05:37:39;;;;;;;30.35;12.75;;;4.70;99.90;;;;;;5081812;28;20104;-84
2022/12/01 05:40:05;;;;;;;32.00;12.57;;;5.10;99.90;;;;;;5081212;28;20513;-84
2022/12/01 05:42:31;;;;;;;32.95;12.63;;;4.70;99.90;;;;;;5081397;28;20118;-84
2022/12/01 05:44:57;;;;;;;30.35;13.13;;;4.70;99.90;;;;;;5097566;28;20122;-85
2022/12/01 05:47:23;;;;;;;34.08;13.95;;;4.60;99.90;;;;;;5080593;28;20046;-84
2022/12/01 05:49:49;;;;;;;35.97;15.52;;;3.50;99.90;;;;;;5081037;28;20063;-85
2022/12/01 05:52:14;;;;;;;43.67;13.23;;;6.50;99.90;;;;;;5080963;28;20116;-84
2022/12/01 05:54:40;;;;;;;31.52;12.75;;;5.50;99.90;;;;;;5115152;28;20486;-84
2022/12/01 05:57:06;;;;;;;34.28;13.82;;;6.40;99.90;;;;;;5062770;28;20543;-81
2022/12/01 05:59:31;;;;;;;30.02;13.50;;;6.30;99.90;;;;;;5079591;28;20040;-81
2022/12/01 06:01:57;;;;;;;32.53;12.60;;;4.70;99.90;;;;;;5087711;28;20071;-81
2022/12/01 06:04:23;;;;;;;32.88;12.65;;;6.70;99.90;;;;;;5093121;28;20035;-81
2022/12/01 06:06:49;;;;;;;36.25;13.18;;;6.00;99.90;;;;;;5095248;28;20510;-81
2022/12/01 06:09:15;;;;;;;32.85;11.95;;;4.70;99.90;;;;;;5095113;28;20188;-81
2022/12/01 06:11:41;;;;;;;29.60;12.23;;;4.50;99.90;;;;;;5099318;28;20543;-81
2022/12/01 06:14:06;;;;;;;28.63;11.82;;;5.60;99.90;;;;;;5102793;28;20050;-81
2022/12/01 06:16:32;;;;;;;29.33;11.25;;;4.70;99.90;;;;;;5113345;28;20039;-81
2022/12/01 06:18:58;;;;;;;34.25;12.43;;;4.20;99.90;;;;;;5079145;28;20043;-81
2022/12/01 06:21:23;;;;;;;32.92;12.45;;;4.60;99.90;;;;;;5095044;28;20114;-81
2022/12/01 06:23:49;;;;;;;27.63;11.35;;;5.90;99.90;;;;;;5113946;28;20055;-81
2022/12/01 06:26:15;;;;;;;30.67;12.43;;;4.60;99.90;;;;;;5094362;28;20472;-81
2022/12/01 06:28:41;;;;;;;40.47;12.68;;;4.50;99.90;;;;;;5078384;28;20036;-81
2022/12/01 06:31:06;;;;;;;46.08;13.85;;;4.50;99.90;;;;;;5113149;28;20096;-82
2022/12/01 06:33:32;;;;;;;41.05;13.85;;;6.00;99.90;;;;;;5113459;28;20435;-83
2022/12/01 06:36:03;;;;;;;32.30;11.82;;;6.40;99.90;;;;;;5083292;28;20104;-83
2022/12/01 06:38:30;;;;;;;34.38;12.05;;;4.10;99.90;;;;;;5077904;28;20044;-83
2022/12/01 06:40:56;;;;;;;30.15;11.75;;;4.00;99.90;;;;;;5094687;28;20526;-83
2022/12/01 06:43:22;;;;;;;29.98;10.95;;;4.90;99.90;;;;;;5094549;28;20123;-83
2022/12/01 06:45:47;;;;;;;25.05;10.07;;;3.80;99.90;;;;;;5073963;28;20074;-83
2022/12/01 06:48:14;;;;;;;27.45;10.45;;;;;;;;;;5099897;28;20040;-83
2022/12/01 06:50:39;;;;;;;23.17;9.32;;;3.50;99.90;;;;;;5075588;28;20054;-83
2022/12/01 06:53:05;;;;;;;23.48;9.50;;;4.70;99.90;;;;;;5060847;28;20554;-82
2022/12/01 06:55:31;;;;;;;25.35;9.85;;;3.70;99.90;;;;;;5079729;28;20093;-82
2022/12/01 06:58:00;;;;;;;26.63;10.25;;;4.70;99.90;;;;;;5109418;28;20108;-82
2022/12/01 07:00:25;;;;;;;23.25;9.50;;;4.30;99.90;;;;;;5096265;28;20104;-83
2022/12/01 07:02:51;;;;;;;24.52;8.60;;;4.90;99.90;;;;;;5076449;28;20468;-84
2022/12/01 07:05:17;;;;;;;21.63;8.00;;;4.90;99.90;;;;;;5105828;27;20050;-84
2022/12/01 07:07:43;;;;;;;23.40;8.75;;;2.90;99.90;;;;;;5092912;28;20080;-84
2022/12/01 07:10:10;;;;;;;21.73;8.85;;;2.70;99.90;;;;;;5078974;28;20119;-84
2022/12/01 07:12:36;;;;;;;23.73;10.43;;;2.70;99.90;;;;;;5079585;28;20031;-84
2022/12/01 07:15:04;;;;;;;21.80;8.75;;;2.70;99.90;;;;;;5096775;28;20091;-85
2022/12/01 07:17:29;;;;;;;21.08;9.65;;;2.60;99.90;;;;;;5096518;28;20082;-85
2022/12/01 07:19:56;;;;;;;21.30;8.15;;;2.50;99.90;;;;;;5079440;28;20070;-81
2022/12/01 07:22:21;;;;;;;20.27;8.40;;;4.30;99.90;;;;;;5113966;28;20078;-81
2022/12/01 07:24:47;;;;;;;19.98;7.78;;;3.20;99.90;;;;;;5076338;28;20071;-81
2022/12/01 07:27:13;;;;;;;22.40;8.48;;;2.30;99.90;;;;;;5062108;28;20051;-81
2022/12/01 07:29:39;;;;;;;18.17;8.18;;;2.30;99.90;;;;;;5078807;28;20395;-81
2022/12/01 07:32:04;;;;;;;21.02;8.45;;;2.30;99.90;;;;;;5113311;28;20039;-84
2022/12/01 07:34:30;;;;;;;21.98;8.02;;;2.10;99.90;;;;;;5095141;28;20127;-81
2022/12/01 07:36:56;;;;;;;24.13;8.82;;;3.60;99.90;;;;;;5090512;28;20120;-84
2022/12/01 07:39:21;;;;;;;26.98;8.32;;;2.40;99.90;;;;;;5072250;28;20053;-84
2022/12/01 07:41:47;;;;;;;28.13;10.43;;;3.40;99.90;;;;;;5061772;28;20376;-84
2022/12/01 07:44:13;;;;;;;32.95;11.27;;;4.20;99.90;;;;;;5059663;28;20420;-84
2022/12/01 07:46:39;;;;;;;25.17;10.23;;;2.60;99.90;;;;;;5090016;28;20371;-84
2022/12/01 07:49:07;;;;;;;24.10;8.77;;;2.60;99.90;;;;;;5076599;23;20076;-84
2022/12/01 07:51:33;;;;;;;24.88;8.90;;;3.60;99.90;;;;;;5077538;28;20076;-84
2022/12/01 07:54:04;;;;;;;27.95;9.60;;;3.40;99.90;;;;;;5082145;28;20042;-81
2022/12/01 07:56:30;;;;;;;25.67;10.95;;;2.60;99.90;;;;;;5069967;28;20131;-81
2022/12/01 07:58:56;;;;;;;30.77;10.25;;;3.70;99.90;;;;;;5081061;28;20143;-80
2022/12/01 08:01:24;;;;;;;29.60;10.70;;;4.90;99.90;;;;;;5076088;28;20045;-81
2022/12/01 08:03:55;;;;;;;30.77;11.88;;;4.20;99.90;;;;;;5082314;28;20094;-81
2022/12/01 08:06:22;;;;;;;26.70;10.90;;;3.40;99.90;;;;;;5078396;28;20039;-81
2022/12/01 08:08:48;;;;;;;31.08;11.10;;;4.20;99.90;;;;;;5078242;28;20079;-81
2022/12/01 08:11:22;;;;;;;31.15;10.15;;;5.50;99.90;;;;;;5049320;28;20079;-84
2022/12/01 08:13:49;;;;;;;25.50;8.48;;;5.40;99.90;;;;;;5068754;28;20097;-84
2022/12/01 08:16:18;;;;;;;20.83;8.93;;;3.90;99.90;;;;;;5062730;28;20059;-85
2022/12/01 08:18:45;;;;;;;20.00;8.15;;;;;;;;;;5078029;28;20040;-84
2022/12/01 08:21:13;;;;;;;25.95;10.10;;;4.10;99.90;;;;;;5083159;28;20072;-84
2022/12/01 08:23:40;;;;;;;37.70;12.40;;;4.60;99.90;;;;;;5080859;28;20060;-84
2022/12/01 08:26:11;;;;;;;29.27;11.80;;;5.00;99.90;;;;;;5066522;28;20036;-84
2022/12/01 08:28:37;;;;;;;23.52;10.20;;;5.20;99.90;;;;;;5062386;28;20068;-81
2022/12/01 08:31:14;;;;;;;27.27;10.40;;;5.00;99.90;;;;;;5077759;28;20044;-81
2022/12/01 08:33:40;;;;;;;28.70;11.55;;;5.00;99.90;;;;;;5060207;28;20109;-81
2022/12/01 08:36:06;;;;;;;27.50;11.35;;;5.30;99.90;;;;;;5079878;28;20504;-81
2022/12/01 08:38:32;;;;;;;22.63;10.27;;;6.00;99.90;;;;;;5078122;28;20463;-81
2022/12/01 08:41:08;;;;;;;21.35;9.68;;;6.90;99.90;;;;;;5082143;28;20093;-81
2022/12/01 08:43:41;;;;;;;17.73;8.18;;;7.70;99.90;;;;;;5062303;28;20476;-81
2022/12/01 08:46:07;;;;;;;24.92;9.77;;;8.40;99.90;;;;;;5072551;28;20098;-81
2022/12/01 08:48:34;;;;;;;20.75;8.63;;;9.10;99.90;;;;;;5067191;28;20040;-81
2022/12/01 08:51:12;;;;;;;22.58;9.48;;;9.50;99.90;;;;;;5086719;28;20051;-81
2022/12/01 08:53:41;;;;;;;30.40;10.80;;;10.20;99.90;;;;;;5074104;28;20066;-81
2022/12/01 08:56:14;;;;;;;18.90;9.38;;;10.40;99.90;;;;;;5076564;28;20123;-81
2022/12/01 08:58:40;;;;;;;20.27;9.50;;;11.00;99.90;;;;;;5087198;28;20055;-81
2022/12/01 09:01:09;;;;;;;23.13;9.65;;;11.30;99.90;;;;;;5097323;28;20490;-83
2022/12/01 09:03:36;;;;;;;23.95;10.50;;;11.50;99.90;;;;;;5098869;28;20483;-83
2022/12/01 09:06:03;;;;;;;13.00;7.20;;;11.50;99.90;;;;;;5099118;28;20416;-81
2022/12/01 09:08:33;;;;;;;17.33;7.30;;;11.10;99.90;;;;;;5081351;28;20036;-84
2022/12/01 09:11:01;;;;;;;16.42;8.07;;;10.80;99.90;;;;;;5066763;28;20760;-83
2022/12/01 09:13:28;;;;;;;18.55;7.80;;;10.60;99.90;;;;;;5078074;28;20040;-83
2022/12/01 09:16:04;;;;;;;16.35;7.10;;;10.30;99.90;;;;;;5061279;28;20487;-83
2022/12/01 09:18:30;;;;;;;14.20;6.38;;;10.20;99.90;;;;;;5077209;28;20048;-81
2022/12/01 09:20:56;;;;;;;15.40;6.78;;;10.20;99.90;;;;;;5044213;28;20037;-81
2022/12/01 09:23:23;;;;;;;14.82;6.60;;;9.90;99.90;;;;;;5057450;28;20048;-81
2022/12/01 09:25:50;;;;;;;14.38;6.22;;;9.80;99.90;;;;;;5077772;28;20051;-81
2022/12/01 09:28:16;;;;;;;14.60;5.93;;;9.70;99.90;;;;;;5077360;28;20695;-81
2022/12/01 09:30:43;;;;;;;13.27;6.35;;;9.40;99.90;;;;;;5080343;28;20549;-81
2022/12/01 09:33:09;;;;;;;12.35;5.30;;;9.20;99.90;;;;;;5068332;28;20059;-83
2022/12/01 09:35:35;;;;;;;12.25;5.55;;;9.10;99.90;;;;;;5081372;28;20040;-83
2022/12/01 09:38:01;;;;;;;13.73;5.57;;;9.00;99.90;;;;;;5081490;28;20092;-83
2022/12/01 09:40:34;;;;;;;14.45;6.65;;;8.90;99.90;;;;;;5097067;28;20114;-83
2022/12/01 09:43:02;;;;;;;11.48;5.40;;;8.90;99.90;;;;;;5079075;28;20040;-83
2022/12/01 09:45:32;;;;;;;10.88;5.13;;;9.00;99.90;;;;;;5077977;28;20379;-83
2022/12/01 09:48:00;;;;;;;14.13;5.82;;;9.90;99.90;;;;;;5061148;28;20071;-83
2022/12/01 09:50:28;;;;;;;14.60;5.80;;;9.80;99.90;;;;;;5077413;28;20056;-83
2022/12/01 09:53:06;;;;;;;12.73;5.80;;;10.00;99.90;;;;;;5077404;28;20138;-82
2022/12/01 09:55:33;;;;;;;10.40;5.50;;;9.80;99.90;;;;;;5060789;28;20399;-82
2022/12/01 09:58:01;;;;;;;10.88;5.93;;;9.70;99.90;;;;;;5051737;28;20039;-82
2022/12/01 10:00:31;;;;;;;14.05;5.78;;;9.60;99.90;;;;;;5075847;28;20035;-82
2022/12/01 10:03:21;;;;;;;10.38;5.63;;;9.60;99.90;;;;;;5065513;28;20041;-82
2022/12/01 10:06:02;;;;;;;13.27;5.45;;;9.50;99.90;;;;;;5082414;28;20396;-82
2022/12/01 10:08:33;;;;;;;13.18;6.22;;;9.60;99.90;;;;;;5083238;28;20067;-81
2022/12/01 10:11:13;;;;;;;10.95;5.50;;;9.80;99.90;;;;;;5082177;28;20031;-81
2022/12/01 10:13:39;;;;;;;11.57;5.80;;;10.30;99.90;;;;;;5084526;28;20066;-81
2022/12/01 10:16:10;;;;;;;11.88;5.65;;;10.40;99.90;;;;;;5086055;28;20479;-82
2022/12/01 10:19:00;;;;;;;10.18;4.75;;;10.30;99.90;;;;;;5063185;28;20383;-81
2022/12/01 10:21:50;;;;;;;12.65;6.35;;;9.80;99.90;;;;;;5076699;28;20045;-81
2022/12/01 10:24:51;;;;;;;12.55;6.18;;;9.80;99.90;;;;;;5072116;28;20115;-83
2022/12/01 10:27:42;;;;;;;14.45;5.30;;;9.40;99.90;;;;;;5046283;28;20036;-84
2022/12/01 10:30:17;;;;;;;11.45;5.85;;;9.40;99.90;;;;;;5096467;28;20047;-84
2022/12/01 10:33:11;;;;;;;16.95;5.60;;;8.80;99.90;;;;;;5097254;28;20044;-84
2022/12/01 10:35:39;;;;;;;14.75;5.03;;;9.80;99.90;;;;;;5057116;28;20036;-85
2022/12/01 10:38:12;;;;;;;11.68;5.18;;;10.20;99.90;;;;;;5040648;28;20448;-85
2022/12/01 10:40:39;;;;;;;10.63;4.80;;;10.40;99.90;;;;;;5071344;28;20440;-83
2022/12/01 10:43:04;;;;;;;11.05;4.72;;;10.50;99.90;;;;;;5096496;28;20039;-84
2022/12/01 10:45:38;;;;;;;10.10;5.15;;;10.40;99.90;;;;;;5065522;28;20036;-83
2022/12/01 10:48:14;;;;;;;11.00;4.63;;;10.10;99.90;;;;;;5076237;28;20075;-81
2022/12/01 10:50:50;;;;;;;13.38;5.30;;;10.20;99.90;;;;;;5077446;28;20047;-84
2022/12/01 10:53:22;;;;;;;11.27;4.32;;;10.50;99.90;;;;;;5075775;28;20514;-85
2022/12/01 10:55:54;;;;;;;11.70;4.75;;;11.40;99.90;;;;;;5059251;28;20530;-85
2022/12/01 10:58:21;;;;;;;9.43;5.00;;;12.00;99.90;;;;;;5059647;28;20036;-81
2022/12/01 11:00:56;;;;;;;8.95;3.90;;;12.90;99.90;;;;;;5059889;28;20044;-85
2022/12/01 11:03:25;;;;;;;9.75;4.57;;;13.50;99.90;;;;;;5076407;28;20047;-83
2022/12/01 11:05:57;;;;;;;10.45;5.15;;;13.80;99.90;;;;;;5077655;28;20037;-83
2022/12/01 11:08:51;;;;;;;12.27;4.32;;;14.50;99.90;;;;;;5088299;28;20051;-83
2022/12/01 11:11:29;;;;;;;10.23;4.80;;;14.90;99.90;;;;;;5078438;28;20122;-83
2022/12/01 11:13:56;;;;;;;8.15;4.28;;;15.30;99.90;;;;;;5087561;28;20482;-82
2022/12/01 11:16:42;;;;;;;7.82;4.25;;;14.70;99.90;;;;;;5079498;28;20047;-82
2022/12/01 11:19:31;;;;;;;8.05;4.25;;;14.50;99.90;;;;;;5077083;28;20067;-83
2022/12/01 11:21:59;;;;;;;9.63;4.50;;;13.90;99.90;;;;;;5070903;28;20040;-81
2022/12/01 11:24:41;;;;;;;9.18;4.40;;;13.20;99.90;;;;;;5063719;28;20099;-83
2022/12/01 11:27:23;;;;;;;7.60;3.90;;;12.90;99.90;;;;;;5085406;28;20047;-83
2022/12/01 11:29:51;;;;;;;9.38;4.18;;;12.40;99.90;;;;;;5083971;28;20091;-81
2022/12/01 11:32:24;;;;;;;8.90;4.95;;;12.20;99.90;;;;;;5076744;28;20035;-81
2022/12/01 11:35:06;;;;;;;11.93;5.22;;;11.80;99.90;;;;;;5082392;28;20039;-81
2022/12/01 11:37:53;;;;;;;9.73;4.57;;;11.60;99.90;;;;;;5061293;28;20036;-81
2022/12/01 11:40:28;;;;;;;10.13;4.40;;;11.40;99.90;;;;;;5078176;28;20040;-83
2022/12/01 11:43:05;;;;;;;9.25;3.95;;;11.30;99.90;;;;;;5082358;28;20043;-85
2022/12/01 11:45:43;;;;;;;10.23;4.75;;;11.00;99.90;;;;;;5069780;28;20058;-85
2022/12/01 11:48:14;;;;;;;11.77;4.75;;;10.70;99.90;;;;;;5074838;28;20039;-81
2022/12/01 11:50:42;;;;;;;13.23;4.60;;;10.60;99.90;;;;;;5081287;28;20192;-81
2022/12/01 11:53:26;;;;;;;9.77;4.45;;;10.50;99.90;;;;;;5083240;28;20482;-81
2022/12/01 11:56:13;;;;;;;10.27;3.90;;;10.30;99.90;;;;;;5066984;28;20119;-82
2022/12/01 11:58:40;;;;;;;12.90;5.00;;;10.20;99.90;;;;;;5061758;28;20047;-81
2022/12/01 12:01:28;;;;;;;11.52;5.47;;;9.90;99.90;;;;;;5061405;28;20376;-82
2022/12/01 12:04:17;;;;;;;10.73;4.93;;;9.70;99.90;;;;;;5087738;28;20043;-81
2022/12/01 12:06:49;;;;;;;9.43;4.13;;;9.70;99.90;;;;;;5081358;28;20032;-82
2022/12/01 12:09:30;;;;;;;9.55;4.78;;;9.70;99.90;;;;;;5065207;28;20063;-81
2022/12/01 12:12:16;;;;;;;9.82;3.85;;;9.70;99.90;;;;;;5081885;28;20042;-82
2022/12/01 12:14:55;;;;;;;9.15;4.70;;;9.60;99.90;;;;;;5083440;28;20052;-81
2022/12/01 12:17:42;;;;;;;12.27;5.93;;;9.60;99.90;;;;;;5059120;28;20052;-84
2022/12/01 12:20:32;;;;;;;10.90;4.88;;;9.50;99.90;;;;;;5075513;28;20048;-83
2022/12/01 12:23:36;;;;;;;11.88;5.55;;;9.60;99.90;;;;;;5056882;28;20039;-83
2022/12/01 12:26:19;;;;;;;9.48;4.93;;;9.40;99.90;;;;;;5082936;28;20044;-83
2022/12/01 12:29:17;;;;;;;8.90;4.65;;;9.30;99.90;;;;;;5087366;28;20555;-83
2022/12/01 12:32:23;;;;;;;13.02;5.07;;;9.20;99.90;;;;;;5084082;28;20039;-83
2022/12/01 12:35:08;;;;;;;11.65;5.18;;;9.00;99.90;;;;;;5071944;28;20205;-83
2022/12/01 12:37:47;;;;;;;11.02;5.47;;;8.90;99.90;;;;;;5055382;28;20040;-83
2022/12/01 12:40:28;;;;;;;8.57;4.65;;;8.80;99.90;;;;;;5087569;28;20396;-83
2022/12/01 12:43:20;;;;;;;10.77;4.95;;;8.60;99.90;;;;;;5078331;28;20054;-83
2022/12/01 12:46:04;;;;;;;9.15;4.10;;;8.50;99.90;;;;;;5065695;28;20442;-83
2022/12/01 12:48:59;;;;;;;9.80;4.35;;;8.50;99.90;;;;;;5080107;28;20051;-83
2022/12/01 12:51:33;;;;;;;12.10;5.32;;;8.50;99.90;;;;;;5059923;28;20052;-83
2022/12/01 12:54:12;;;;;;;8.68;4.82;;;8.60;99.90;;;;;;5083844;28;20523;-82
2022/12/01 12:56:44;;;;;;;11.35;4.28;;;8.80;99.90;;;;;;5084289;28;20119;-83
2022/12/01 12:59:29;;;;;;;9.82;4.70;;;9.20;99.90;;;;;;5088181;28;20052;-83
2022/12/01 13:02:01;;;;;;;10.80;5.13;;;9.60;99.90;;;;;;5088591;28;20715;-82
2022/12/01 13:04:40;;;;;;;10.60;5.72;;;9.90;99.90;;;;;;5091588;28;20036;-82
2022/12/01 13:07:53;;;;;;;9.27;4.82;;;10.30;99.90;;;;;;5084332;28;20046;-82